sensor_id;sensor_type;location;lat;lon;timestamp;P1;durP1;ratioP1;P2;durP2;ratioP2
11743;SDS011;5929;51.906;7.674;2022-09-27T00:01:42;32.50;;;10.73;;
11743;SDS011;5929;51.906;7.674;2022-09-27T00:04:12;35.55;;;10.70;;
11743;SDS011;5929;51.906;7.674;2022-09-27T00:06:39;32.75;;;10.48;;
11743;SDS011;5929;51.906;7.674;2022-09-27T00:09:06;34.58;;;10.25;;
11743;SDS011;5929;51.906;7.674;2022-09-27T00:11:34;33.47;;;10.55;;
11743;SDS011;5929;51.906;7.674;2022-09-27T00:14:03;29.92;;;9.85;;
11743;SDS011;5929;51.906;7.674;2022-09-27T00:16:36;33.28;;;9.75;;
11743;SDS011;5929;51.906;7.674;2022-09-27T00:19:06;31.70;;;9.50;;
11743;SDS011;5929;51.906;7.674;2022-09-27T00:21:36;33.55;;;9.73;;
11743;SDS011;5929;51.906;7.674;2022-09-27T00:24:03;37.30;;;10.70;;
11743;SDS011;5929;51.906;7.674;2022-09-27T00:26:30;27.17;;;10.18;;
11743;SDS011;5929;51.906;7.674;2022-09-27T00:29:00;36.20;;;11.35;;
11743;SDS011;5929;51.906;7.674;2022-09-27T00:31:27;31.92;;;10.05;;
11743;SDS011;5929;51.906;7.674;2022-09-27T00:33:58;29.10;;;10.80;;
11743;SDS011;5929;51.906;7.674;2022-09-27T00:36:26;26.75;;;9.52;;
11743;SDS011;5929;51.906;7.674;2022-09-27T00:38:54;30.23;;;10.13;;
11743;SDS011;5929;51.906;7.674;2022-09-27T00:41:22;30.00;;;9.65;;
11743;SDS011;5929;51.906;7.674;2022-09-27T00:43:51;34.78;;;10.68;;
11743;SDS011;5929;51.906;7.674;2022-09-27T00:46:22;24.30;;;9.77;;
11743;SDS011;5929;51.906;7.674;2022-09-27T00:48:57;28.98;;;9.52;;
11743;SDS011;5929;51.906;7.674;2022-09-27T00:51:29;26.75;;;8.90;;
11743;SDS011;5929;51.906;7.674;2022-09-27T00:53:59;21.77;;;8.43;;
11743;SDS011;5929;51.906;7.674;2022-09-27T00:56:28;25.80;;;7.80;;
11743;SDS011;5929;51.906;7.674;2022-09-27T00:58:58;32.92;;;9.63;;
11743;SDS011;5929;51.906;7.674;2022-09-27T01:01:28;23.63;;;6.90;;
11743;SDS011;5929;51.906;7.674;2022-09-27T01:03:58;24.80;;;7.07;;
11743;SDS011;5929;51.906;7.674;2022-09-27T01:06:28;25.95;;;6.05;;
11743;SDS011;5929;51.906;7.674;2022-09-27T01:08:55;20.00;;;5.97;;
11743;SDS011;5929;51.906;7.674;2022-09-27T01:11:26;19.88;;;5.35;;
11743;SDS011;5929;51.906;7.674;2022-09-27T01:14:07;18.50;;;5.13;;
11743;SDS011;5929;51.906;7.674;2022-09-27T01:16:54;21.85;;;5.18;;
11743;SDS011;5929;51.906;7.674;2022-09-27T01:19:37;18.48;;;4.88;;
11743;SDS011;5929;51.906;7.674;2022-09-27T01:22:20;15.95;;;4.05;;
11743;SDS011;5929;51.906;7.674;2022-09-27T01:25:00;20.52;;;4.72;;
11743;SDS011;5929;51.906;7.674;2022-09-27T01:27:45;21.25;;;4.72;;
11743;SDS011;5929;51.906;7.674;2022-09-27T01:30:28;16.30;;;4.70;;
11743;SDS011;5929;51.906;7.674;2022-09-27T01:33:11;19.10;;;5.13;;
11743;SDS011;5929;51.906;7.674;2022-09-27T01:35:49;14.50;;;3.63;;
11743;SDS011;5929;51.906;7.674;2022-09-27T01:38:31;19.48;;;4.88;;
11743;SDS011;5929;51.906;7.674;2022-09-27T01:41:07;19.65;;;4.15;;
11743;SDS011;5929;51.906;7.674;2022-09-27T01:43:47;14.20;;;4.20;;
11743;SDS011;5929;51.906;7.674;2022-09-27T01:46:22;16.92;;;4.28;;
11743;SDS011;5929;51.906;7.674;2022-09-27T01:48:53;16.60;;;5.13;;
11743;SDS011;5929;51.906;7.674;2022-09-27T01:51:22;17.75;;;5.13;;
11743;SDS011;5929;51.906;7.674;2022-09-27T01:53:53;15.13;;;4.90;;
11743;SDS011;5929;51.906;7.674;2022-09-27T01:56:23;21.80;;;5.28;;
11743;SDS011;5929;51.906;7.674;2022-09-27T01:58:58;16.58;;;5.32;;
11743;SDS011;5929;51.906;7.674;2022-09-27T02:01:31;24.40;;;5.85;;
11743;SDS011;5929;51.906;7.674;2022-09-27T02:03:59;11.15;;;4.78;;
11743;SDS011;5929;51.906;7.674;2022-09-27T02:06:29;17.73;;;5.43;;
11743;SDS011;5929;51.906;7.674;2022-09-27T02:09:07;22.17;;;5.93;;
11743;SDS011;5929;51.906;7.674;2022-09-27T02:11:37;18.83;;;5.22;;
11743;SDS011;5929;51.906;7.674;2022-09-27T02:14:07;17.35;;;5.75;;
11743;SDS011;5929;51.906;7.674;2022-09-27T02:16:43;19.25;;;5.57;;
11743;SDS011;5929;51.906;7.674;2022-09-27T02:19:17;19.35;;;6.30;;
11743;SDS011;5929;51.906;7.674;2022-09-27T02:21:55;21.75;;;6.93;;
11743;SDS011;5929;51.906;7.674;2022-09-27T02:24:29;16.42;;;6.35;;
11743;SDS011;5929;51.906;7.674;2022-09-27T02:27:03;20.77;;;7.40;;
11743;SDS011;5929;51.906;7.674;2022-09-27T02:29:38;22.48;;;7.43;;
11743;SDS011;5929;51.906;7.674;2022-09-27T02:32:11;25.60;;;8.32;;
11743;SDS011;5929;51.906;7.674;2022-09-27T02:34:38;27.25;;;7.60;;
11743;SDS011;5929;51.906;7.674;2022-09-27T02:37:06;21.35;;;7.50;;
11743;SDS011;5929;51.906;7.674;2022-09-27T02:39:33;25.88;;;7.70;;
11743;SDS011;5929;51.906;7.674;2022-09-27T02:42:02;23.17;;;8.05;;
11743;SDS011;5929;51.906;7.674;2022-09-27T02:44:30;16.67;;;7.10;;
11743;SDS011;5929;51.906;7.674;2022-09-27T02:47:07;20.48;;;7.38;;
11743;SDS011;5929;51.906;7.674;2022-09-27T02:49:54;21.73;;;7.32;;
11743;SDS011;5929;51.906;7.674;2022-09-27T02:52:36;22.38;;;7.22;;
11743;SDS011;5929;51.906;7.674;2022-09-27T02:55:12;22.98;;;7.47;;
11743;SDS011;5929;51.906;7.674;2022-09-27T02:57:47;15.88;;;5.45;;
11743;SDS011;5929;51.906;7.674;2022-09-27T03:00:23;18.88;;;6.18;;
11743;SDS011;5929;51.906;7.674;2022-09-27T03:03:01;14.85;;;5.32;;
11743;SDS011;5929;51.906;7.674;2022-09-27T03:05:34;15.20;;;4.97;;
11743;SDS011;5929;51.906;7.674;2022-09-27T03:08:06;12.40;;;4.53;;
11743;SDS011;5929;51.906;7.674;2022-09-27T03:10:33;11.43;;;4.13;;
11743;SDS011;5929;51.906;7.674;2022-09-27T03:13:00;16.50;;;4.03;;
11743;SDS011;5929;51.906;7.674;2022-09-27T03:15:28;13.32;;;3.97;;
11743;SDS011;5929;51.906;7.674;2022-09-27T03:17:56;15.20;;;4.18;;
11743;SDS011;5929;51.906;7.674;2022-09-27T03:20:24;14.10;;;4.07;;
11743;SDS011;5929;51.906;7.674;2022-09-27T03:22:51;12.43;;;3.10;;
11743;SDS011;5929;51.906;7.674;2022-09-27T03:25:20;8.85;;;3.30;;
11743;SDS011;5929;51.906;7.674;2022-09-27T03:27:47;13.77;;;3.58;;
11743;SDS011;5929;51.906;7.674;2022-09-27T03:30:15;13.27;;;3.90;;
11743;SDS011;5929;51.906;7.674;2022-09-27T03:32:42;8.63;;;3.53;;
11743;SDS011;5929;51.906;7.674;2022-09-27T03:35:09;11.13;;;3.60;;
11743;SDS011;5929;51.906;7.674;2022-09-27T03:37:38;18.05;;;4.05;;
11743;SDS011;5929;51.906;7.674;2022-09-27T03:40:06;12.48;;;3.95;;
11743;SDS011;5929;51.906;7.674;2022-09-27T03:42:34;14.60;;;3.90;;
11743;SDS011;5929;51.906;7.674;2022-09-27T03:45:00;12.88;;;3.92;;
11743;SDS011;5929;51.906;7.674;2022-09-27T03:47:27;18.10;;;4.80;;
11743;SDS011;5929;51.906;7.674;2022-09-27T03:49:54;14.95;;;4.10;;
11743;SDS011;5929;51.906;7.674;2022-09-27T03:52:21;14.60;;;4.40;;
11743;SDS011;5929;51.906;7.674;2022-09-27T03:54:49;16.20;;;5.07;;
11743;SDS011;5929;51.906;7.674;2022-09-27T03:57:16;19.38;;;6.32;;
11743;SDS011;5929;51.906;7.674;2022-09-27T03:59:43;27.60;;;6.68;;
11743;SDS011;5929;51.906;7.674;2022-09-27T04:02:10;18.52;;;6.53;;
11743;SDS011;5929;51.906;7.674;2022-09-27T04:04:37;20.58;;;6.13;;
11743;SDS011;5929;51.906;7.674;2022-09-27T04:07:04;15.15;;;6.40;;
11743;SDS011;5929;51.906;7.674;2022-09-27T04:09:32;18.98;;;7.30;;
11743;SDS011;5929;51.906;7.674;2022-09-27T04:12:03;17.08;;;6.25;;
11743;SDS011;5929;51.906;7.674;2022-09-27T04:14:32;16.92;;;7.20;;
11743;SDS011;5929;51.906;7.674;2022-09-27T04:16:59;18.15;;;6.45;;
11743;SDS011;5929;51.906;7.674;2022-09-27T04:19:26;18.02;;;6.80;;
11743;SDS011;5929;51.906;7.674;2022-09-27T04:21:53;19.15;;;6.32;;
11743;SDS011;5929;51.906;7.674;2022-09-27T04:24:20;18.15;;;7.18;;
11743;SDS011;5929;51.906;7.674;2022-09-27T04:26:47;16.35;;;7.07;;
11743;SDS011;5929;51.906;7.674;2022-09-27T04:29:15;23.17;;;7.15;;
11743;SDS011;5929;51.906;7.674;2022-09-27T04:31:42;14.80;;;6.05;;
11743;SDS011;5929;51.906;7.674;2022-09-27T04:34:09;18.10;;;5.90;;
11743;SDS011;5929;51.906;7.674;2022-09-27T04:36:36;20.65;;;6.13;;
11743;SDS011;5929;51.906;7.674;2022-09-27T04:39:03;17.30;;;5.80;;
11743;SDS011;5929;51.906;7.674;2022-09-27T04:41:31;15.60;;;5.38;;
11743;SDS011;5929;51.906;7.674;2022-09-27T04:43:59;18.27;;;5.65;;
11743;SDS011;5929;51.906;7.674;2022-09-27T04:46:28;15.45;;;5.40;;
11743;SDS011;5929;51.906;7.674;2022-09-27T04:48:56;10.23;;;5.30;;
11743;SDS011;5929;51.906;7.674;2022-09-27T04:51:25;21.08;;;5.90;;
11743;SDS011;5929;51.906;7.674;2022-09-27T04:53:52;14.77;;;5.43;;
11743;SDS011;5929;51.906;7.674;2022-09-27T04:56:21;13.82;;;5.50;;
11743;SDS011;5929;51.906;7.674;2022-09-27T04:58:48;17.83;;;6.30;;
11743;SDS011;5929;51.906;7.674;2022-09-27T05:01:15;10.93;;;4.95;;
11743;SDS011;5929;51.906;7.674;2022-09-27T05:03:43;19.35;;;5.57;;
11743;SDS011;5929;51.906;7.674;2022-09-27T05:06:10;15.75;;;4.78;;
11743;SDS011;5929;51.906;7.674;2022-09-27T05:08:37;14.98;;;5.05;;
11743;SDS011;5929;51.906;7.674;2022-09-27T05:11:04;13.40;;;5.38;;
11743;SDS011;5929;51.906;7.674;2022-09-27T05:13:33;12.93;;;5.20;;
11743;SDS011;5929;51.906;7.674;2022-09-27T05:16:03;14.65;;;5.65;;
11743;SDS011;5929;51.906;7.674;2022-09-27T05:18:30;16.48;;;6.60;;
11743;SDS011;5929;51.906;7.674;2022-09-27T05:20:59;12.93;;;6.45;;
11743;SDS011;5929;51.906;7.674;2022-09-27T05:23:26;17.27;;;7.18;;
11743;SDS011;5929;51.906;7.674;2022-09-27T05:25:53;15.05;;;7.22;;
11743;SDS011;5929;51.906;7.674;2022-09-27T05:28:20;19.05;;;8.55;;
11743;SDS011;5929;51.906;7.674;2022-09-27T05:30:47;21.30;;;8.93;;
11743;SDS011;5929;51.906;7.674;2022-09-27T05:33:14;20.77;;;8.88;;
11743;SDS011;5929;51.906;7.674;2022-09-27T05:35:50;23.00;;;10.43;;
11743;SDS011;5929;51.906;7.674;2022-09-27T05:38:18;25.40;;;9.80;;
11743;SDS011;5929;51.906;7.674;2022-09-27T05:40:46;20.77;;;10.88;;
11743;SDS011;5929;51.906;7.674;2022-09-27T05:43:18;20.65;;;10.75;;
11743;SDS011;5929;51.906;7.674;2022-09-27T05:45:45;32.15;;;11.40;;
11743;SDS011;5929;51.906;7.674;2022-09-27T05:48:12;21.88;;;10.48;;
11743;SDS011;5929;51.906;7.674;2022-09-27T05:50:39;25.45;;;11.57;;
11743;SDS011;5929;51.906;7.674;2022-09-27T05:53:06;24.65;;;11.40;;
11743;SDS011;5929;51.906;7.674;2022-09-27T05:55:36;24.77;;;10.77;;
11743;SDS011;5929;51.906;7.674;2022-09-27T05:58:04;29.65;;;11.93;;
11743;SDS011;5929;51.906;7.674;2022-09-27T06:00:31;27.95;;;11.95;;
11743;SDS011;5929;51.906;7.674;2022-09-27T06:03:00;26.42;;;11.63;;
11743;SDS011;5929;51.906;7.674;2022-09-27T06:05:29;23.63;;;11.80;;
11743;SDS011;5929;51.906;7.674;2022-09-27T06:08:00;26.45;;;12.75;;
11743;SDS011;5929;51.906;7.674;2022-09-27T06:10:29;26.58;;;12.48;;
11743;SDS011;5929;51.906;7.674;2022-09-27T06:13:01;26.02;;;11.70;;
11743;SDS011;5929;51.906;7.674;2022-09-27T06:15:30;24.75;;;11.88;;
11743;SDS011;5929;51.906;7.674;2022-09-27T06:18:01;23.92;;;11.45;;
11743;SDS011;5929;51.906;7.674;2022-09-27T06:20:29;30.20;;;12.23;;
11743;SDS011;5929;51.906;7.674;2022-09-27T06:23:04;26.02;;;11.85;;
11743;SDS011;5929;51.906;7.674;2022-09-27T06:25:32;25.35;;;11.00;;
11743;SDS011;5929;51.906;7.674;2022-09-27T06:28:00;27.17;;;11.88;;
11743;SDS011;5929;51.906;7.674;2022-09-27T06:30:29;26.63;;;12.20;;
11743;SDS011;5929;51.906;7.674;2022-09-27T06:32:56;32.30;;;12.10;;
11743;SDS011;5929;51.906;7.674;2022-09-27T06:35:24;26.33;;;11.90;;
11743;SDS011;5929;51.906;7.674;2022-09-27T06:37:52;25.20;;;12.00;;
11743;SDS011;5929;51.906;7.674;2022-09-27T06:40:20;31.88;;;12.75;;
11743;SDS011;5929;51.906;7.674;2022-09-27T06:42:48;31.95;;;12.48;;
11743;SDS011;5929;51.906;7.674;2022-09-27T06:45:19;26.58;;;12.68;;
11743;SDS011;5929;51.906;7.674;2022-09-27T06:47:46;24.30;;;12.35;;
11743;SDS011;5929;51.906;7.674;2022-09-27T06:50:13;25.48;;;12.13;;
11743;SDS011;5929;51.906;7.674;2022-09-27T06:52:45;23.92;;;12.32;;
11743;SDS011;5929;51.906;7.674;2022-09-27T06:55:13;28.52;;;12.82;;
11743;SDS011;5929;51.906;7.674;2022-09-27T06:57:42;25.75;;;14.00;;
11743;SDS011;5929;51.906;7.674;2022-09-27T07:00:31;29.20;;;12.15;;
11743;SDS011;5929;51.906;7.674;2022-09-27T07:02:58;21.05;;;12.25;;
11743;SDS011;5929;51.906;7.674;2022-09-27T07:05:26;26.13;;;12.65;;
11743;SDS011;5929;51.906;7.674;2022-09-27T07:07:54;29.83;;;12.63;;
11743;SDS011;5929;51.906;7.674;2022-09-27T07:10:22;25.27;;;11.57;;
11743;SDS011;5929;51.906;7.674;2022-09-27T07:12:49;21.70;;;11.07;;
11743;SDS011;5929;51.906;7.674;2022-09-27T07:15:16;27.40;;;11.80;;
11743;SDS011;5929;51.906;7.674;2022-09-27T07:17:45;24.35;;;11.35;;
11743;SDS011;5929;51.906;7.674;2022-09-27T07:20:12;23.17;;;11.18;;
11743;SDS011;5929;51.906;7.674;2022-09-27T07:22:40;26.55;;;10.55;;
11743;SDS011;5929;51.906;7.674;2022-09-27T07:25:08;24.20;;;10.82;;
11743;SDS011;5929;51.906;7.674;2022-09-27T07:27:35;18.50;;;10.30;;
11743;SDS011;5929;51.906;7.674;2022-09-27T07:30:02;22.33;;;10.57;;
11743;SDS011;5929;51.906;7.674;2022-09-27T07:32:32;23.05;;;9.77;;
11743;SDS011;5929;51.906;7.674;2022-09-27T07:35:02;25.20;;;9.68;;
11743;SDS011;5929;51.906;7.674;2022-09-27T07:37:30;20.48;;;9.68;;
11743;SDS011;5929;51.906;7.674;2022-09-27T07:39:57;16.45;;;9.23;;
11743;SDS011;5929;51.906;7.674;2022-09-27T07:42:25;19.80;;;8.07;;
11743;SDS011;5929;51.906;7.674;2022-09-27T07:44:53;26.08;;;8.63;;
11743;SDS011;5929;51.906;7.674;2022-09-27T07:47:19;22.83;;;8.20;;
11743;SDS011;5929;51.906;7.674;2022-09-27T07:49:48;18.98;;;6.85;;
11743;SDS011;5929;51.906;7.674;2022-09-27T07:52:17;21.25;;;6.93;;
11743;SDS011;5929;51.906;7.674;2022-09-27T07:54:44;17.27;;;5.63;;
11743;SDS011;5929;51.906;7.674;2022-09-27T07:57:12;17.33;;;6.95;;
11743;SDS011;5929;51.906;7.674;2022-09-27T07:59:39;14.45;;;5.45;;
11743;SDS011;5929;51.906;7.674;2022-09-27T08:02:08;13.07;;;4.93;;
11743;SDS011;5929;51.906;7.674;2022-09-27T08:04:39;11.05;;;4.10;;
11743;SDS011;5929;51.906;7.674;2022-09-27T08:07:07;13.02;;;3.30;;
11743;SDS011;5929;51.906;7.674;2022-09-27T08:09:36;12.35;;;2.92;;
11743;SDS011;5929;51.906;7.674;2022-09-27T08:12:03;11.18;;;2.55;;
11743;SDS011;5929;51.906;7.674;2022-09-27T08:14:30;7.55;;;2.78;;
11743;SDS011;5929;51.906;7.674;2022-09-27T08:16:57;8.02;;;2.35;;
11743;SDS011;5929;51.906;7.674;2022-09-27T08:19:24;11.13;;;3.05;;
11743;SDS011;5929;51.906;7.674;2022-09-27T08:21:51;9.38;;;2.40;;
11743;SDS011;5929;51.906;7.674;2022-09-27T08:24:19;7.30;;;1.95;;
11743;SDS011;5929;51.906;7.674;2022-09-27T08:26:48;8.20;;;2.13;;
11743;SDS011;5929;51.906;7.674;2022-09-27T08:29:15;7.18;;;1.77;;
11743;SDS011;5929;51.906;7.674;2022-09-27T08:31:42;8.70;;;2.40;;
11743;SDS011;5929;51.906;7.674;2022-09-27T08:34:09;12.40;;;2.28;;
11743;SDS011;5929;51.906;7.674;2022-09-27T08:36:35;7.07;;;1.50;;
11743;SDS011;5929;51.906;7.674;2022-09-27T08:39:02;7.25;;;1.45;;
11743;SDS011;5929;51.906;7.674;2022-09-27T08:41:32;7.95;;;2.15;;
11743;SDS011;5929;51.906;7.674;2022-09-27T08:44:07;9.40;;;1.90;;
11743;SDS011;5929;51.906;7.674;2022-09-27T08:46:40;7.68;;;1.30;;
11743;SDS011;5929;51.906;7.674;2022-09-27T08:49:18;11.80;;;1.90;;
11743;SDS011;5929;51.906;7.674;2022-09-27T08:51:52;8.55;;;1.75;;
11743;SDS011;5929;51.906;7.674;2022-09-27T08:54:21;5.95;;;1.10;;
11743;SDS011;5929;51.906;7.674;2022-09-27T08:56:51;3.70;;;1.10;;
11743;SDS011;5929;51.906;7.674;2022-09-27T08:59:21;8.45;;;1.48;;
11743;SDS011;5929;51.906;7.674;2022-09-27T09:01:52;7.85;;;2.13;;
11743;SDS011;5929;51.906;7.674;2022-09-27T09:04:21;4.72;;;1.27;;
11743;SDS011;5929;51.906;7.674;2022-09-27T09:06:54;6.07;;;2.13;;
11743;SDS011;5929;51.906;7.674;2022-09-27T09:09:30;5.35;;;1.42;;
11743;SDS011;5929;51.906;7.674;2022-09-27T09:12:07;6.65;;;1.70;;
11743;SDS011;5929;51.906;7.674;2022-09-27T09:15:10;5.80;;;1.40;;
11743;SDS011;5929;51.906;7.674;2022-09-27T09:17:54;9.90;;;1.48;;
11743;SDS011;5929;51.906;7.674;2022-09-27T09:20:34;8.43;;;1.30;;
11743;SDS011;5929;51.906;7.674;2022-09-27T09:26:11;6.30;;;1.35;;
11743;SDS011;5929;51.906;7.674;2022-09-27T09:28:49;8.10;;;1.58;;
11743;SDS011;5929;51.906;7.674;2022-09-27T09:31:30;5.45;;;1.45;;
11743;SDS011;5929;51.906;7.674;2022-09-27T09:34:04;6.70;;;1.48;;
11743;SDS011;5929;51.906;7.674;2022-09-27T09:36:36;4.57;;;1.27;;
11743;SDS011;5929;51.906;7.674;2022-09-27T09:39:11;7.35;;;1.88;;
11743;SDS011;5929;51.906;7.674;2022-09-27T09:41:42;4.65;;;1.33;;
11743;SDS011;5929;51.906;7.674;2022-09-27T09:44:26;4.43;;;1.23;;
11743;SDS011;5929;51.906;7.674;2022-09-27T09:46:58;6.55;;;1.25;;
11743;SDS011;5929;51.906;7.674;2022-09-27T09:49:28;6.07;;;1.60;;
11743;SDS011;5929;51.906;7.674;2022-09-27T09:52:00;4.40;;;1.23;;
11743;SDS011;5929;51.906;7.674;2022-09-27T09:54:31;5.45;;;1.10;;
11743;SDS011;5929;51.906;7.674;2022-09-27T09:57:04;5.13;;;1.58;;
11743;SDS011;5929;51.906;7.674;2022-09-27T09:59:37;4.88;;;1.10;;
11743;SDS011;5929;51.906;7.674;2022-09-27T10:02:16;3.90;;;1.30;;
11743;SDS011;5929;51.906;7.674;2022-09-27T10:04:50;4.13;;;1.02;;
11743;SDS011;5929;51.906;7.674;2022-09-27T10:07:18;4.10;;;1.20;;
11743;SDS011;5929;51.906;7.674;2022-09-27T10:09:50;4.20;;;1.30;;
11743;SDS011;5929;51.906;7.674;2022-09-27T10:12:19;6.43;;;1.20;;
11743;SDS011;5929;51.906;7.674;2022-09-27T10:14:47;4.60;;;1.50;;
11743;SDS011;5929;51.906;7.674;2022-09-27T10:17:17;4.43;;;1.30;;
11743;SDS011;5929;51.906;7.674;2022-09-27T10:19:46;4.22;;;1.60;;
11743;SDS011;5929;51.906;7.674;2022-09-27T10:22:18;4.97;;;1.10;;
11743;SDS011;5929;51.906;7.674;2022-09-27T10:24:53;3.35;;;1.02;;
11743;SDS011;5929;51.906;7.674;2022-09-27T10:27:22;4.63;;;0.80;;
11743;SDS011;5929;51.906;7.674;2022-09-27T10:29:55;3.05;;;0.80;;
11743;SDS011;5929;51.906;7.674;2022-09-27T10:32:25;6.50;;;1.30;;
11743;SDS011;5929;51.906;7.674;2022-09-27T10:34:55;4.90;;;1.20;;
11743;SDS011;5929;51.906;7.674;2022-09-27T10:37:42;5.80;;;1.10;;
11743;SDS011;5929;51.906;7.674;2022-09-27T10:40:15;4.82;;;1.00;;
11743;SDS011;5929;51.906;7.674;2022-09-27T10:42:52;5.53;;;1.13;;
11743;SDS011;5929;51.906;7.674;2022-09-27T10:45:19;4.43;;;1.00;;
11743;SDS011;5929;51.906;7.674;2022-09-27T10:47:53;6.13;;;1.30;;
11743;SDS011;5929;51.906;7.674;2022-09-27T10:50:23;4.03;;;1.20;;
11743;SDS011;5929;51.906;7.674;2022-09-27T10:53:02;2.90;;;1.23;;
11743;SDS011;5929;51.906;7.674;2022-09-27T10:55:32;3.50;;;1.50;;
11743;SDS011;5929;51.906;7.674;2022-09-27T10:58:00;5.72;;;1.80;;
11743;SDS011;5929;51.906;7.674;2022-09-27T11:00:28;8.65;;;1.90;;
11743;SDS011;5929;51.906;7.674;2022-09-27T11:03:00;5.10;;;2.20;;
11743;SDS011;5929;51.906;7.674;2022-09-27T11:05:32;8.73;;;2.60;;
11743;SDS011;5929;51.906;7.674;2022-09-27T11:08:01;6.75;;;2.90;;
11743;SDS011;5929;51.906;7.674;2022-09-27T11:13:41;6.38;;;2.92;;
11743;SDS011;5929;51.906;7.674;2022-09-27T11:16:27;7.07;;;2.15;;
11743;SDS011;5929;51.906;7.674;2022-09-27T11:19:10;3.95;;;1.20;;
11743;SDS011;5929;51.906;7.674;2022-09-27T11:22:04;4.50;;;1.17;;
11743;SDS011;5929;51.906;7.674;2022-09-27T11:24:48;3.13;;;1.00;;
11743;SDS011;5929;51.906;7.674;2022-09-27T11:27:24;5.38;;;1.15;;
11743;SDS011;5929;51.906;7.674;2022-09-27T11:30:06;3.92;;;0.88;;
11743;SDS011;5929;51.906;7.674;2022-09-27T11:32:43;5.45;;;1.80;;
11743;SDS011;5929;51.906;7.674;2022-09-27T11:35:28;2.80;;;1.00;;
11743;SDS011;5929;51.906;7.674;2022-09-27T11:38:16;3.33;;;1.20;;
11743;SDS011;5929;51.906;7.674;2022-09-27T11:40:53;2.53;;;1.10;;
11743;SDS011;5929;51.906;7.674;2022-09-27T11:43:42;5.03;;;1.27;;
11743;SDS011;5929;51.906;7.674;2022-09-27T11:46:22;3.10;;;0.90;;
11743;SDS011;5929;51.906;7.674;2022-09-27T11:49:06;3.60;;;1.05;;
11743;SDS011;5929;51.906;7.674;2022-09-27T11:52:00;4.75;;;0.85;;
11743;SDS011;5929;51.906;7.674;2022-09-27T11:54:41;3.70;;;0.85;;
11743;SDS011;5929;51.906;7.674;2022-09-27T11:57:21;3.90;;;1.00;;
11743;SDS011;5929;51.906;7.674;2022-09-27T12:02:55;6.72;;;1.08;;
11743;SDS011;5929;51.906;7.674;2022-09-27T12:08:47;3.08;;;0.68;;
11743;SDS011;5929;51.906;7.674;2022-09-27T12:11:23;4.53;;;1.25;;
11743;SDS011;5929;51.906;7.674;2022-09-27T12:13:57;4.38;;;1.20;;
11743;SDS011;5929;51.906;7.674;2022-09-27T12:16:27;4.88;;;1.58;;
11743;SDS011;5929;51.906;7.674;2022-09-27T12:18:56;7.78;;;1.67;;
11743;SDS011;5929;51.906;7.674;2022-09-27T12:21:26;4.95;;;1.65;;
11743;SDS011;5929;51.906;7.674;2022-09-27T12:23:58;5.13;;;1.20;;
11743;SDS011;5929;51.906;7.674;2022-09-27T12:26:28;4.55;;;1.00;;
11743;SDS011;5929;51.906;7.674;2022-09-27T12:29:01;4.72;;;0.90;;
11743;SDS011;5929;51.906;7.674;2022-09-27T12:31:39;3.13;;;0.80;;
11743;SDS011;5929;51.906;7.674;2022-09-27T12:34:10;3.95;;;1.05;;
11743;SDS011;5929;51.906;7.674;2022-09-27T12:36:45;2.25;;;0.88;;
11743;SDS011;5929;51.906;7.674;2022-09-27T12:39:18;3.33;;;1.10;;
11743;SDS011;5929;51.906;7.674;2022-09-27T12:41:50;4.45;;;1.08;;
11743;SDS011;5929;51.906;7.674;2022-09-27T12:44:26;5.13;;;1.20;;
11743;SDS011;5929;51.906;7.674;2022-09-27T12:46:56;1.60;;;0.52;;
11743;SDS011;5929;51.906;7.674;2022-09-27T12:49:35;1.98;;;0.70;;
11743;SDS011;5929;51.906;7.674;2022-09-27T12:52:13;4.95;;;0.98;;
11743;SDS011;5929;51.906;7.674;2022-09-27T12:55:04;2.63;;;0.75;;
11743;SDS011;5929;51.906;7.674;2022-09-27T12:57:50;3.97;;;0.85;;
11743;SDS011;5929;51.906;7.674;2022-09-27T13:00:42;4.93;;;0.90;;
11743;SDS011;5929;51.906;7.674;2022-09-27T13:03:24;2.72;;;1.02;;
11743;SDS011;5929;51.906;7.674;2022-09-27T13:06:09;3.33;;;1.10;;
11743;SDS011;5929;51.906;7.674;2022-09-27T13:09:01;2.35;;;0.93;;
11743;SDS011;5929;51.906;7.674;2022-09-27T13:11:50;3.55;;;0.70;;
11743;SDS011;5929;51.906;7.674;2022-09-27T13:14:26;3.63;;;1.25;;
11743;SDS011;5929;51.906;7.674;2022-09-27T13:16:57;3.53;;;1.30;;
11743;SDS011;5929;51.906;7.674;2022-09-27T13:19:37;2.70;;;1.00;;
11743;SDS011;5929;51.906;7.674;2022-09-27T13:22:07;3.92;;;1.23;;
11743;SDS011;5929;51.906;7.674;2022-09-27T13:24:42;4.50;;;1.90;;
11743;SDS011;5929;51.906;7.674;2022-09-27T13:27:35;6.18;;;1.55;;
11743;SDS011;5929;51.906;7.674;2022-09-27T13:33:28;4.55;;;1.30;;
11743;SDS011;5929;51.906;7.674;2022-09-27T13:36:07;3.78;;;1.30;;
11743;SDS011;5929;51.906;7.674;2022-09-27T13:39:02;7.97;;;2.03;;
11743;SDS011;5929;51.906;7.674;2022-09-27T13:44:56;3.80;;;1.33;;
11743;SDS011;5929;51.906;7.674;2022-09-27T13:47:37;3.38;;;1.25;;
11743;SDS011;5929;51.906;7.674;2022-09-27T13:50:14;3.45;;;1.38;;
11743;SDS011;5929;51.906;7.674;2022-09-27T13:52:55;5.18;;;1.90;;
11743;SDS011;5929;51.906;7.674;2022-09-27T13:55:37;3.63;;;1.52;;
11743;SDS011;5929;51.906;7.674;2022-09-27T13:58:14;5.50;;;1.80;;
11743;SDS011;5929;51.906;7.674;2022-09-27T14:00:54;5.10;;;1.60;;
11743;SDS011;5929;51.906;7.674;2022-09-27T14:03:25;4.03;;;1.58;;
11743;SDS011;5929;51.906;7.674;2022-09-27T14:06:19;6.95;;;1.42;;
11743;SDS011;5929;51.906;7.674;2022-09-27T14:08:50;5.63;;;1.55;;
11743;SDS011;5929;51.906;7.674;2022-09-27T14:11:20;4.20;;;1.40;;
11743;SDS011;5929;51.906;7.674;2022-09-27T14:13:51;3.90;;;1.30;;
11743;SDS011;5929;51.906;7.674;2022-09-27T14:16:20;3.85;;;1.48;;
11743;SDS011;5929;51.906;7.674;2022-09-27T14:18:50;4.88;;;1.38;;
11743;SDS011;5929;51.906;7.674;2022-09-27T14:21:26;5.25;;;1.70;;
11743;SDS011;5929;51.906;7.674;2022-09-27T14:27:05;4.90;;;1.20;;
11743;SDS011;5929;51.906;7.674;2022-09-27T14:29:42;4.72;;;1.10;;
11743;SDS011;5929;51.906;7.674;2022-09-27T14:32:15;3.75;;;1.00;;
11743;SDS011;5929;51.906;7.674;2022-09-27T14:34:43;3.35;;;1.05;;
11743;SDS011;5929;51.906;7.674;2022-09-27T14:37:20;3.88;;;1.30;;
11743;SDS011;5929;51.906;7.674;2022-09-27T14:39:52;3.88;;;1.40;;
11743;SDS011;5929;51.906;7.674;2022-09-27T14:42:30;4.03;;;1.08;;
11743;SDS011;5929;51.906;7.674;2022-09-27T14:45:02;4.55;;;1.25;;
11743;SDS011;5929;51.906;7.674;2022-09-27T14:47:33;3.15;;;1.13;;
11743;SDS011;5929;51.906;7.674;2022-09-27T14:50:11;4.45;;;1.02;;
11743;SDS011;5929;51.906;7.674;2022-09-27T14:52:43;3.45;;;0.88;;
11743;SDS011;5929;51.906;7.674;2022-09-27T14:55:14;2.25;;;0.60;;
11743;SDS011;5929;51.906;7.674;2022-09-27T14:57:44;2.55;;;0.65;;
11743;SDS011;5929;51.906;7.674;2022-09-27T15:00:14;6.72;;;1.20;;
11743;SDS011;5929;51.906;7.674;2022-09-27T15:02:44;4.90;;;1.08;;
11743;SDS011;5929;51.906;7.674;2022-09-27T15:05:12;2.40;;;0.68;;
11743;SDS011;5929;51.906;7.674;2022-09-27T15:07:41;2.72;;;0.77;;
11743;SDS011;5929;51.906;7.674;2022-09-27T15:10:11;2.65;;;0.80;;
11743;SDS011;5929;51.906;7.674;2022-09-27T15:12:44;3.22;;;0.88;;
11743;SDS011;5929;51.906;7.674;2022-09-27T15:15:13;4.22;;;0.73;;
11743;SDS011;5929;51.906;7.674;2022-09-27T15:17:45;4.43;;;1.23;;
11743;SDS011;5929;51.906;7.674;2022-09-27T15:20:20;4.97;;;1.02;;
11743;SDS011;5929;51.906;7.674;2022-09-27T15:22:50;4.75;;;1.25;;
11743;SDS011;5929;51.906;7.674;2022-09-27T15:25:18;3.75;;;1.02;;
11743;SDS011;5929;51.906;7.674;2022-09-27T15:27:56;3.40;;;0.80;;
11743;SDS011;5929;51.906;7.674;2022-09-27T15:30:25;2.80;;;0.93;;
11743;SDS011;5929;51.906;7.674;2022-09-27T15:32:55;3.15;;;1.00;;
11743;SDS011;5929;51.906;7.674;2022-09-27T15:35:24;2.30;;;1.05;;
11743;SDS011;5929;51.906;7.674;2022-09-27T15:38:08;4.93;;;1.45;;
11743;SDS011;5929;51.906;7.674;2022-09-27T15:43:39;3.33;;;1.20;;
11743;SDS011;5929;51.906;7.674;2022-09-27T15:46:32;5.65;;;1.77;;
11743;SDS011;5929;51.906;7.674;2022-09-27T15:51:48;3.28;;;1.05;;